createdAt,value
2022-09-25T00:02:05.605Z,98245.34
2022-09-25T00:04:35.308Z,98245.59
2022-09-25T00:07:03.284Z,98248.69
2022-09-25T00:09:31.256Z,98245.09
2022-09-25T00:11:59.240Z,98240.88
2022-09-25T00:14:27.197Z,98239.28
2022-09-25T00:16:55.190Z,98231.75
2022-09-25T00:19:42.701Z,98239.53
2022-09-25T00:22:12.016Z,98245.81
2022-09-25T00:24:39.991Z,98249.59
2022-09-25T00:27:08.430Z,98251.41
2022-09-25T00:29:37.173Z,98250.81
2022-09-25T00:32:05.208Z,98249.03
2022-09-25T00:34:33.211Z,98245.31
2022-09-25T00:37:01.241Z,98248.19
2022-09-25T00:39:30.740Z,98244.00
2022-09-25T00:41:59.267Z,98249.50
2022-09-25T00:44:46.040Z,98258.59
2022-09-25T00:47:16.800Z,98250.56
2022-09-25T00:49:45.464Z,98242.59
2022-09-25T00:52:13.946Z,98244.44
2022-09-25T00:54:45.676Z,98239.16
2022-09-25T00:57:17.923Z,98232.91
2022-09-25T00:59:47.756Z,98227.41
2022-09-25T01:02:20.704Z,98233.00
2022-09-25T01:04:49.093Z,98231.13
2022-09-25T01:07:17.614Z,98227.41
2022-09-25T01:09:47.263Z,98224.88
2022-09-25T01:12:15.322Z,98221.41
2022-09-25T01:14:43.902Z,98215.84
2022-09-25T01:17:18.816Z,98224.63
2022-09-25T01:19:56.755Z,98222.25
2022-09-25T01:22:28.854Z,98227.50
2022-09-25T01:25:07.681Z,98221.72
2022-09-25T01:27:43.711Z,98211.72
2022-09-25T01:30:14.764Z,98212.66
2022-09-25T01:32:49.279Z,98208.38
2022-09-25T01:35:20.598Z,98210.09
2022-09-25T01:37:55.121Z,98206.38
2022-09-25T01:40:27.557Z,98206.88
2022-09-25T01:42:58.659Z,98203.09
2022-09-25T01:45:30.619Z,98209.34
2022-09-25T01:48:00.829Z,98220.34
2022-09-25T01:50:30.967Z,98206.88
2022-09-25T01:53:02.255Z,98217.91
2022-09-25T01:55:32.271Z,98204.66
2022-09-25T01:58:05.237Z,98208.75
2022-09-25T02:00:38.816Z,98208.94
2022-09-25T02:03:09.219Z,98205.50
2022-09-25T02:05:42.183Z,98207.97
2022-09-25T02:08:12.058Z,98203.88
2022-09-25T02:10:44.999Z,98206.81
2022-09-25T02:13:17.139Z,98205.66
2022-09-25T02:15:48.458Z,98200.91
2022-09-25T02:18:35.334Z,98202.84
2022-09-25T02:21:06.848Z,98194.06
2022-09-25T02:23:39.758Z,98208.13
2022-09-25T02:26:09.300Z,98208.84
2022-09-25T02:28:39.922Z,98197.69
2022-09-25T02:31:11.245Z,98200.38
2022-09-25T02:33:39.354Z,98206.16
2022-09-25T02:36:07.460Z,98208.84
2022-09-25T02:38:36.430Z,98202.03
2022-09-25T02:41:10.251Z,98201.06
2022-09-25T02:43:44.187Z,98208.94
2022-09-25T02:46:18.431Z,98197.94
2022-09-25T02:48:51.038Z,98209.00
2022-09-25T02:51:22.178Z,98208.94
2022-09-25T02:53:54.786Z,98204.50
2022-09-25T02:56:27.428Z,98201.06
2022-09-25T02:58:57.465Z,98208.38
2022-09-25T03:01:29.814Z,98200.97
2022-09-25T03:04:00.055Z,98203.50
2022-09-25T03:06:29.327Z,98202.44
2022-09-25T03:08:57.647Z,98196.38
2022-09-25T03:11:27.816Z,98196.53
2022-09-25T03:13:57.231Z,98195.41
2022-09-25T03:16:32.014Z,98186.03
2022-09-25T03:19:00.069Z,98181.19
2022-09-25T03:21:28.055Z,98182.50
2022-09-25T03:23:58.617Z,98186.28
2022-09-25T03:26:27.208Z,98187.44
2022-09-25T03:28:55.828Z,98187.09
2022-09-25T03:31:23.870Z,98193.81
2022-09-25T03:33:53.211Z,98188.25
2022-09-25T03:36:22.149Z,98188.91
2022-09-25T03:38:51.103Z,98186.81
2022-09-25T03:41:21.183Z,98197.09
2022-09-25T03:43:51.476Z,98185.13
2022-09-25T03:46:20.662Z,98193.09
2022-09-25T03:48:48.692Z,98193.09
2022-09-25T03:51:20.589Z,98189.06
2022-09-25T03:53:48.700Z,98204.16
2022-09-25T03:56:20.305Z,98194.16
2022-09-25T03:58:48.611Z,98198.66
2022-09-25T04:01:19.407Z,98197.34
2022-09-25T04:03:48.028Z,98193.66
2022-09-25T04:06:18.197Z,98200.25
2022-09-25T04:08:48.656Z,98198.16
2022-09-25T04:11:16.857Z,98201.22
2022-09-25T04:13:45.168Z,98198.06
2022-09-25T04:16:13.961Z,98203.72
2022-09-25T04:18:42.956Z,98193.66
2022-09-25T04:21:12.659Z,98193.81
2022-09-25T04:23:41.415Z,98195.38
2022-09-25T04:26:10.750Z,98186.94
2022-09-25T04:28:38.922Z,98196.59
2022-09-25T04:31:07.181Z,98193.91
2022-09-25T04:33:46.220Z,98189.88
2022-09-25T04:36:14.469Z,98185.28
2022-09-25T04:38:42.623Z,98181.75
2022-09-25T04:41:12.407Z,98185.53
2022-09-25T04:43:40.882Z,98189.13
2022-09-25T04:46:16.758Z,98194.38
2022-09-25T04:48:50.815Z,98195.44
2022-09-25T04:51:18.806Z,98198.41
2022-09-25T04:53:47.209Z,98191.53
2022-09-25T04:56:16.971Z,98193.72
2022-09-25T04:58:46.112Z,98198.59
2022-09-25T05:01:14.256Z,98198.59
2022-09-25T05:03:42.799Z,98190.84
2022-09-25T05:06:10.834Z,98194.88
2022-09-25T05:08:38.785Z,98194.81
2022-09-25T05:11:09.091Z,98192.13
2022-09-25T05:13:41.048Z,98188.22
2022-09-25T05:16:09.113Z,98193.13
2022-09-25T05:18:37.112Z,98191.78
2022-09-25T05:21:07.615Z,98196.91
2022-09-25T05:23:35.579Z,98191.41
2022-09-25T05:26:03.660Z,98194.47
2022-09-25T05:28:32.125Z,98196.50
2022-09-25T05:31:02.710Z,98196.38
2022-09-25T05:33:30.811Z,98205.72
2022-09-25T05:36:01.162Z,98197.00
2022-09-25T05:38:29.714Z,98197.78
2022-09-25T05:41:02.941Z,98201.47
2022-09-25T05:43:31.355Z,98190.13
2022-09-25T05:46:00.841Z,98199.00
2022-09-25T05:48:28.841Z,98194.97
2022-09-25T05:50:57.497Z,98206.72
2022-09-25T05:53:26.716Z,98197.28
2022-09-25T05:55:55.464Z,98197.06
2022-09-25T05:58:23.510Z,98163.28
2022-09-25T06:00:51.947Z,98166.47
2022-09-25T06:03:21.389Z,98194.34
2022-09-25T06:05:51.908Z,98197.44
2022-09-25T06:08:19.899Z,98193.31
2022-09-25T06:10:53.745Z,98190.53
2022-09-25T06:13:21.843Z,98182.69
2022-09-25T06:15:52.707Z,98190.00
2022-09-25T06:18:22.980Z,98182.97
2022-09-25T06:20:51.461Z,98187.28
2022-09-25T06:23:21.630Z,98198.44
2022-09-25T06:25:49.604Z,98197.94
2022-09-25T06:28:19.979Z,98191.19
2022-09-25T06:30:48.085Z,98182.22
2022-09-25T06:33:16.089Z,98191.44
2022-09-25T06:35:46.023Z,98184.88
2022-09-25T06:38:14.269Z,98192.25
2022-09-25T06:40:42.454Z,98185.69
2022-09-25T06:43:11.417Z,98194.66
2022-09-25T06:45:39.469Z,98197.16
2022-09-25T06:48:10.587Z,98191.69
2022-09-25T06:50:40.528Z,98186.72
2022-09-25T06:53:10.380Z,98183.47
2022-09-25T06:55:38.968Z,98188.63
2022-09-25T06:58:08.322Z,98184.94
2022-09-25T07:00:36.509Z,98192.91
2022-09-25T07:03:22.324Z,98182.03
2022-09-25T07:05:50.436Z,98180.03
2022-09-25T07:08:20.949Z,98177.25
2022-09-25T07:10:50.142Z,98181.09
2022-09-25T07:13:18.179Z,98177.25
2022-09-25T07:15:51.853Z,98178.66
2022-09-25T07:18:19.947Z,98170.69
2022-09-25T07:20:47.985Z,98176.00
2022-09-25T07:23:17.187Z,98188.25
2022-09-25T07:25:48.998Z,98181.03
2022-09-25T07:28:18.929Z,98173.28
2022-09-25T07:30:47.341Z,98165.50
2022-09-25T07:33:16.206Z,98162.22
2022-09-25T07:35:44.253Z,98154.66
2022-09-25T07:38:12.302Z,98157.00
2022-09-25T07:40:40.340Z,98157.38
2022-09-25T07:43:09.680Z,98166.03
2022-09-25T07:45:37.799Z,98171.00
2022-09-25T07:48:06.226Z,98168.94
2022-09-25T07:50:34.331Z,98175.81
2022-09-25T07:53:02.337Z,98172.22
2022-09-25T07:55:30.341Z,98172.22
2022-09-25T07:57:58.813Z,98154.50
2022-09-25T08:00:28.271Z,98169.69
2022-09-25T08:02:57.431Z,98177.34
2022-09-25T08:05:25.751Z,98179.63
2022-09-25T08:07:54.100Z,98177.56
2022-09-25T08:10:24.608Z,98178.31
2022-09-25T08:12:52.843Z,98185.00
2022-09-25T08:15:20.849Z,98176.91
2022-09-25T08:17:50.205Z,98184.16
2022-09-25T08:20:18.388Z,98176.94
2022-09-25T08:22:47.565Z,98162.47
2022-09-25T08:25:17.892Z,98174.19
2022-09-25T08:27:45.867Z,98163.19
2022-09-25T08:30:15.840Z,98168.78
2022-09-25T08:32:43.836Z,98165.50
2022-09-25T08:35:13.760Z,98170.94
2022-09-25T08:37:42.574Z,98171.50
2022-09-25T08:40:17.754Z,98171.72
2022-09-25T08:42:46.871Z,98165.34
2022-09-25T08:45:39.964Z,98163.78
2022-09-25T08:48:27.901Z,98158.34
2022-09-25T08:50:57.341Z,98140.41
2022-09-25T08:53:26.210Z,98142.53
2022-09-25T08:56:11.944Z,98133.28
2022-09-25T08:58:42.621Z,98140.44
2022-09-25T09:01:13.404Z,98121.91
2022-09-25T09:03:45.082Z,98125.75
2022-09-25T09:06:16.235Z,98141.59
2022-09-25T09:08:47.789Z,98147.22
2022-09-25T09:11:19.213Z,98136.25
2022-09-25T09:13:49.336Z,98149.22
2022-09-25T09:16:20.307Z,98148.91
2022-09-25T09:18:48.414Z,98142.69
2022-09-25T09:21:22.506Z,98151.75
2022-09-25T09:23:55.266Z,98150.75
2022-09-25T09:26:43.420Z,98152.34
2022-09-25T09:29:17.909Z,98149.63
2022-09-25T09:31:52.218Z,98152.41
2022-09-25T09:35:00.997Z,98150.84
2022-09-25T09:37:31.638Z,98142.38
2022-09-25T09:40:03.825Z,98148.78
2022-09-25T09:42:38.150Z,98143.56
2022-09-25T09:45:13.207Z,98136.13
2022-09-25T09:47:44.818Z,98134.16
2022-09-25T09:50:22.776Z,98132.19
2022-09-25T09:52:57.116Z,98120.31
2022-09-25T09:55:27.770Z,98127.81
2022-09-25T09:57:57.427Z,98117.06
2022-09-25T10:00:25.486Z,98112.44
2022-09-25T10:02:59.330Z,98102.31
2022-09-25T10:05:29.695Z,98096.88
2022-09-25T10:07:59.606Z,98096.41
2022-09-25T10:10:35.148Z,98098.06
2022-09-25T10:13:07.287Z,98106.75
2022-09-25T10:15:40.889Z,98109.47
2022-09-25T10:18:09.144Z,98099.78
2022-09-25T10:20:41.272Z,98104.31
2022-09-25T10:23:20.255Z,98099.50
2022-09-25T10:25:51.316Z,98096.97
2022-09-25T10:28:27.846Z,98094.84
2022-09-25T10:30:56.833Z,98093.97
2022-09-25T10:33:26.167Z,98081.91
2022-09-25T10:35:56.176Z,98075.94
2022-09-25T10:38:37.520Z,98078.19
2022-09-25T10:41:10.375Z,98082.50
2022-09-25T10:43:51.006Z,98087.28
2022-09-25T10:46:46.787Z,98074.81
2022-09-25T10:49:33.549Z,98075.94
2022-09-25T10:52:06.287Z,98071.13
2022-09-25T10:54:41.897Z,98072.13
2022-09-25T10:57:18.102Z,98068.72
2022-09-25T10:59:48.485Z,98074.03
2022-09-25T11:02:22.736Z,98068.25
2022-09-25T11:04:52.595Z,98068.50
2022-09-25T11:07:27.727Z,98075.28
2022-09-25T11:10:00.539Z,98056.19
2022-09-25T11:12:30.287Z,98060.50
2022-09-25T11:15:02.294Z,98052.88
2022-09-25T11:17:33.560Z,98033.94
2022-09-25T11:20:22.294Z,98063.56
2022-09-25T11:22:53.653Z,98066.16
2022-09-25T11:25:28.243Z,98067.31
2022-09-25T11:27:59.959Z,98072.31
2022-09-25T11:30:33.325Z,98057.44
2022-09-25T11:33:05.414Z,98059.78
2022-09-25T11:35:42.565Z,98060.91
2022-09-25T11:38:18.209Z,98050.59
2022-09-25T11:41:14.667Z,98050.03
2022-09-25T11:43:58.264Z,98043.53
2022-09-25T11:46:29.829Z,98047.31
2022-09-25T11:49:07.306Z,98033.97
2022-09-25T11:51:59.197Z,98034.78
2022-09-25T11:54:34.479Z,98035.88
2022-09-25T11:57:09.789Z,98047.31
2022-09-25T11:59:43.960Z,98031.53
2022-09-25T12:02:19.788Z,98043.22
2022-09-25T12:04:56.947Z,98029.81
2022-09-25T12:07:40.564Z,98035.06
2022-09-25T12:10:14.970Z,98027.72
2022-09-25T12:12:49.285Z,98023.31
2022-09-25T12:15:21.273Z,98019.81
2022-09-25T12:17:54.377Z,98018.72
2022-09-25T12:20:26.812Z,98032.34
2022-09-25T12:23:00.156Z,98031.25
2022-09-25T12:25:37.254Z,98033.16
2022-09-25T12:28:16.338Z,98018.41
2022-09-25T12:30:56.005Z,98031.81
2022-09-25T12:33:27.991Z,98026.88
2022-09-25T12:35:59.116Z,98025.78
2022-09-25T12:38:34.576Z,98026.34
2022-09-25T12:41:06.803Z,98018.38
2022-09-25T12:43:41.243Z,98015.09
2022-09-25T12:46:10.978Z,98004.16
2022-09-25T12:48:43.975Z,98006.81
2022-09-25T12:51:14.882Z,98005.34
2022-09-25T12:53:46.181Z,98013.25
2022-09-25T12:56:16.645Z,98012.97
2022-09-25T12:58:55.335Z,98015.19
2022-09-25T13:01:25.605Z,98001.00
2022-09-25T13:04:04.813Z,98003.19
2022-09-25T13:06:39.073Z,98014.91
2022-09-25T13:09:11.481Z,98002.34
2022-09-25T13:11:45.301Z,97999.31
2022-09-25T13:14:17.816Z,98000.91
2022-09-25T13:16:48.698Z,97995.44
2022-09-25T13:19:25.157Z,98004.22
2022-09-25T13:22:00.075Z,98001.50
2022-09-25T13:24:28.400Z,97998.28
2022-09-25T13:26:57.690Z,97997.66
2022-09-25T13:29:28.919Z,97990.59
2022-09-25T13:32:03.473Z,97993.91
2022-09-25T13:34:35.149Z,97982.78
2022-09-25T13:37:05.089Z,97984.50
2022-09-25T13:39:51.615Z,97992.53
2022-09-25T13:42:23.361Z,97990.09
2022-09-25T13:44:58.035Z,97990.91
2022-09-25T13:47:53.393Z,97995.47
2022-09-25T13:50:26.318Z,97986.28
2022-09-25T13:53:16.230Z,97986.81
2022-09-25T13:55:44.636Z,97993.63
2022-09-25T13:58:19.202Z,97991.63
2022-09-25T14:00:57.496Z,97991.47
2022-09-25T14:03:31.994Z,98000.91
2022-09-25T14:06:00.650Z,97993.81
2022-09-25T14:08:31.091Z,97992.03
2022-09-25T14:11:00.875Z,97985.09
2022-09-25T14:13:32.280Z,97985.91
2022-09-25T14:16:02.792Z,97980.47
2022-09-25T14:18:37.327Z,97984.00
2022-09-25T14:21:06.370Z,97973.66
2022-09-25T14:23:34.435Z,97984.31
2022-09-25T14:26:04.789Z,97983.84
2022-09-25T14:28:36.407Z,97987.38
2022-09-25T14:31:23.909Z,97983.56
2022-09-25T14:34:04.679Z,97983.03
2022-09-25T14:36:37.107Z,97988.72
2022-09-25T14:39:14.252Z,97987.63
2022-09-25T14:41:52.878Z,97992.56
2022-09-25T14:44:30.120Z,97991.47
2022-09-25T14:46:58.304Z,97995.56
2022-09-25T14:49:28.865Z,97984.66
2022-09-25T14:51:58.212Z,97986.44
2022-09-25T14:54:29.643Z,97981.97
2022-09-25T14:56:58.192Z,97980.31
2022-09-25T14:59:31.096Z,97981.34
2022-09-25T15:02:00.681Z,97986.50
2022-09-25T15:04:32.274Z,97987.31
2022-09-25T15:07:04.507Z,97988.94
2022-09-25T15:09:36.904Z,97990.25
2022-09-25T15:12:15.961Z,97985.53
2022-09-25T15:14:57.869Z,97991.41
2022-09-25T15:17:25.728Z,97991.47
2022-09-25T15:19:55.600Z,98000.78
2022-09-25T15:22:24.840Z,98006.50
2022-09-25T15:24:55.526Z,98001.59
2022-09-25T15:27:23.659Z,97998.69
2022-09-25T15:29:52.128Z,97989.66
2022-09-25T15:32:21.413Z,97984.28
2022-09-25T15:34:49.459Z,97983.94
2022-09-25T15:37:29.040Z,97985.28
2022-09-25T15:39:57.288Z,97976.44
2022-09-25T15:42:25.233Z,97974.94
2022-09-25T15:44:54.472Z,97975.66
2022-09-25T15:47:41.181Z,97980.38
2022-09-25T15:50:17.628Z,97975.09
2022-09-25T15:52:49.997Z,97976.78
2022-09-25T15:55:22.169Z,97986.06
2022-09-25T15:57:50.972Z,97986.81
2022-09-25T16:00:40.265Z,97985.16
2022-09-25T16:03:32.760Z,97977.91
2022-09-25T16:06:04.246Z,97984.22
2022-09-25T16:08:34.556Z,97984.50
2022-09-25T16:11:17.819Z,97996.88
2022-09-25T16:13:48.600Z,98017.47
2022-09-25T16:16:21.339Z,98020.94
2022-09-25T16:18:51.086Z,98037.63
2022-09-25T16:21:23.703Z,98050.13
2022-09-25T16:23:56.121Z,98060.06
2022-09-25T16:26:25.940Z,98063.22
2022-09-25T16:29:06.481Z,98059.69
2022-09-25T16:31:36.356Z,98066.25
2022-09-25T16:34:05.751Z,98075.38
2022-09-25T16:36:40.836Z,98081.81
2022-09-25T16:39:26.798Z,98095.38
2022-09-25T16:41:56.478Z,98102.59
2022-09-25T16:44:36.972Z,98111.59
2022-09-25T16:47:06.903Z,98117.47
2022-09-25T16:49:35.299Z,98115.09
2022-09-25T16:52:05.576Z,98119.31
2022-09-25T16:54:33.820Z,98122.59
2022-09-25T16:57:04.086Z,98122.94
2022-09-25T16:59:32.110Z,98125.03
2022-09-25T17:02:02.158Z,98132.34
2022-09-25T17:04:32.109Z,98127.19
2022-09-25T17:07:00.100Z,98126.78
2022-09-25T17:09:29.248Z,98128.88
2022-09-25T17:12:00.983Z,98127.78
2022-09-25T17:14:30.397Z,98132.56
2022-09-25T17:16:58.955Z,98132.91
2022-09-25T17:19:27.714Z,98130.91
2022-09-25T17:21:58.009Z,98137.66
2022-09-25T17:24:27.120Z,98143.22
2022-09-25T17:26:55.407Z,98146.63
2022-09-25T17:29:23.480Z,98135.22
2022-09-25T17:31:53.255Z,98140.69
2022-09-25T17:34:24.295Z,98152.28
2022-09-25T17:36:52.635Z,98149.81
2022-09-25T17:39:20.629Z,98153.25
2022-09-25T17:41:48.834Z,98125.75
2022-09-25T17:44:18.662Z,98164.00
2022-09-25T17:46:46.815Z,98164.44
2022-09-25T17:49:16.419Z,98171.75
2022-09-25T17:51:44.709Z,98168.94
2022-09-25T17:54:13.396Z,98169.53
2022-09-25T17:56:42.587Z,98176.50
2022-09-25T17:59:10.738Z,98169.19
2022-09-25T18:01:40.069Z,98186.50
2022-09-25T18:04:17.922Z,98172.81
2022-09-25T18:06:50.046Z,98182.16
2022-09-25T18:09:18.104Z,98186.28
2022-09-25T18:11:46.143Z,98184.22
2022-09-25T18:14:15.071Z,98185.13
2022-09-25T18:16:44.194Z,98184.47
2022-09-25T18:19:33.202Z,98185.44
2022-09-25T18:22:18.772Z,98165.09
2022-09-25T18:24:47.001Z,98186.75
2022-09-25T18:27:16.163Z,98174.84
2022-09-25T18:29:45.749Z,98178.72
2022-09-25T18:32:13.939Z,98186.84
2022-09-25T18:34:42.273Z,98189.22
2022-09-25T18:37:12.243Z,98196.78
2022-09-25T18:39:40.289Z,98196.19
2022-09-25T18:42:08.654Z,98200.06
2022-09-25T18:44:41.993Z,98207.84
2022-09-25T18:47:11.013Z,98207.09
2022-09-25T18:49:39.050Z,98201.00
2022-09-25T18:52:07.098Z,98203.34
2022-09-25T18:54:36.428Z,98203.78
2022-09-25T18:57:04.580Z,98206.59
2022-09-25T18:59:32.596Z,98206.44
2022-09-25T19:02:00.773Z,98205.19
2022-09-25T19:04:28.853Z,98217.66
2022-09-25T19:06:56.973Z,98219.16
2022-09-25T19:09:27.408Z,98212.50
2022-09-25T19:11:56.795Z,98220.03
2022-09-25T19:14:25.045Z,98220.34
2022-09-25T19:16:53.264Z,98230.16
2022-09-25T19:19:21.269Z,98221.44
2022-09-25T19:21:49.270Z,98226.00
2022-09-25T19:24:18.294Z,98222.66
2022-09-25T19:26:47.925Z,98226.97
2022-09-25T19:29:17.410Z,98226.06
2022-09-25T19:31:45.723Z,98231.81
2022-09-25T19:34:13.824Z,98228.59
2022-09-25T19:36:41.902Z,98225.34
2022-09-25T19:39:09.891Z,98231.47
2022-09-25T19:41:40.654Z,98224.66
2022-09-25T19:44:13.235Z,98224.59
2022-09-25T19:46:43.339Z,98234.97
2022-09-25T19:49:11.771Z,98240.19
2022-09-25T19:51:40.363Z,98236.59
2022-09-25T19:54:12.562Z,98239.19
2022-09-25T19:56:42.119Z,98231.41
2022-09-25T19:59:12.813Z,98236.59
2022-09-25T20:01:42.814Z,98231.41
2022-09-25T20:04:17.959Z,98235.66
2022-09-25T20:06:46.744Z,98235.75
2022-09-25T20:09:14.937Z,98237.63
2022-09-25T20:11:43.156Z,98236.03
2022-09-25T20:14:11.295Z,98248.06
2022-09-25T20:16:39.293Z,98237.00
2022-09-25T20:19:07.980Z,98231.72
2022-09-25T20:21:38.230Z,98234.22
2022-09-25T20:24:08.323Z,98238.41
2022-09-25T20:26:36.674Z,98227.91
2022-09-25T20:29:09.011Z,98223.28
2022-09-25T20:31:38.091Z,98227.22
2022-09-25T20:34:06.539Z,98230.72
2022-09-25T20:36:36.146Z,98229.56
2022-09-25T20:39:08.036Z,98229.66
2022-09-25T20:41:36.190Z,98231.66
2022-09-25T20:44:06.098Z,98222.06
2022-09-25T20:46:34.543Z,98212.66
2022-09-25T20:49:03.473Z,98214.25
2022-09-25T20:51:32.195Z,98210.44
2022-09-25T20:54:01.488Z,98177.84
2022-09-25T20:56:31.782Z,98210.09
2022-09-25T20:59:00.695Z,98212.75
2022-09-25T21:01:30.049Z,98212.63
2022-09-25T21:03:59.917Z,98206.75
2022-09-25T21:06:28.823Z,98208.53
2022-09-25T21:09:00.653Z,98195.72
2022-09-25T21:11:30.198Z,98203.56
2022-09-25T21:14:00.383Z,98207.34
2022-09-25T21:16:29.294Z,98213.63
2022-09-25T21:18:58.261Z,98216.84
2022-09-25T21:21:26.921Z,98225.50
2022-09-25T21:23:56.305Z,98226.28
2022-09-25T21:26:28.126Z,98223.88
2022-09-25T21:28:57.451Z,98224.94
2022-09-25T21:31:27.877Z,98222.09
2022-09-25T21:33:56.912Z,98224.78
2022-09-25T21:36:25.652Z,98222.47
2022-09-25T21:38:56.049Z,98228.34
2022-09-25T21:41:25.573Z,98219.56
2022-09-25T21:43:53.978Z,98218.53
2022-09-25T21:46:22.089Z,98203.75
2022-09-25T21:48:52.655Z,98222.75
2022-09-25T21:51:21.569Z,98223.81
2022-09-25T21:53:50.049Z,98224.44
2022-09-25T21:56:18.869Z,98213.09
2022-09-25T21:58:49.246Z,98214.94
2022-09-25T22:02:38.711Z,98204.31
2022-09-25T22:05:06.968Z,98209.16
2022-09-25T22:07:34.969Z,98204.66
2022-09-25T22:10:02.996Z,98206.88
2022-09-25T22:12:30.995Z,98204.56
2022-09-25T22:14:58.961Z,98209.03
2022-09-25T22:17:26.930Z,98208.69
2022-09-25T22:19:56.429Z,98206.75
2022-09-25T22:22:24.488Z,98216.56
2022-09-25T22:24:52.482Z,98217.28
2022-09-25T22:27:20.439Z,98212.69
2022-09-25T22:29:48.374Z,98210.97
2022-09-25T22:32:16.372Z,98212.00
2022-09-25T22:34:44.412Z,98206.56
2022-09-25T22:37:13.728Z,98203.66
2022-09-25T22:39:41.938Z,98206.28
2022-09-25T22:42:09.898Z,98205.09
2022-09-25T22:44:37.874Z,98207.28
2022-09-25T22:47:06.259Z,98203.91
2022-09-25T22:49:34.241Z,98197.34
2022-09-25T22:52:02.479Z,98192.25
2022-09-25T22:54:31.975Z,98197.03
2022-09-25T22:56:59.986Z,98193.91
2022-09-25T22:59:28.118Z,98181.94
2022-09-25T23:01:56.239Z,98178.84
2022-09-25T23:04:25.126Z,98181.81
2022-09-25T23:06:53.758Z,98187.09
2022-09-25T23:09:22.276Z,98181.69
2022-09-25T23:11:54.559Z,98177.69
2022-09-25T23:14:23.829Z,98178.00
2022-09-25T23:16:53.283Z,98178.00
2022-09-25T23:19:21.695Z,98180.69
2022-09-25T23:21:51.551Z,98168.22
2022-09-25T23:24:20.188Z,98166.69
2022-09-25T23:26:48.130Z,98164.69
2022-09-25T23:29:18.757Z,98167.22
2022-09-25T23:31:49.683Z,98160.25
2022-09-25T23:34:18.063Z,98160.88
2022-09-25T23:36:46.116Z,98161.88
2022-09-25T23:39:16.244Z,98154.47
2022-09-25T23:41:44.275Z,98156.31
2022-09-25T23:44:12.709Z,98156.47
2022-09-25T23:46:43.216Z,98158.22
2022-09-25T23:49:11.318Z,98159.72
2022-09-25T23:51:39.472Z,98165.25
2022-09-25T23:54:07.565Z,98165.84
2022-09-25T23:56:36.545Z,98161.59
2022-09-25T23:59:05.404Z,98171.63
